createdAt,value
2018-06-18T00:02:12.738Z,89.20
2018-06-18T00:04:41.847Z,89.00
2018-06-18T00:07:10.970Z,88.80
2018-06-18T00:09:40.125Z,89.10
2018-06-18T00:12:09.233Z,88.90
2018-06-18T00:14:38.490Z,88.80
2018-06-18T00:17:07.705Z,89.00
2018-06-18T00:19:36.825Z,89.30
2018-06-18T00:22:07.650Z,89.20
2018-06-18T00:24:36.761Z,89.30
2018-06-18T00:27:06.001Z,89.40
2018-06-18T00:29:35.265Z,89.60
2018-06-18T00:32:04.439Z,89.60
2018-06-18T00:34:33.566Z,89.70
2018-06-18T00:37:02.717Z,89.70
2018-06-18T00:39:31.844Z,89.80
2018-06-18T00:42:00.980Z,90.00
2018-06-18T00:44:30.274Z,90.00
2018-06-18T00:46:59.413Z,90.00
2018-06-18T00:49:28.550Z,89.90
2018-06-18T00:51:57.681Z,89.80
2018-06-18T00:54:26.819Z,89.50
2018-06-18T00:56:55.939Z,89.00
2018-06-18T00:59:25.105Z,89.20
2018-06-18T01:01:54.230Z,89.40
2018-06-18T01:04:23.361Z,89.40
2018-06-18T01:06:52.670Z,89.10
2018-06-18T01:09:21.793Z,89.30
2018-06-18T01:11:50.911Z,89.50
2018-06-18T01:14:22.089Z,89.60
2018-06-18T01:16:51.298Z,89.40
2018-06-18T01:19:27.061Z,90.00
2018-06-18T01:21:56.182Z,89.50
2018-06-18T01:25:01.705Z,89.80
2018-06-18T01:27:30.821Z,90.00
2018-06-18T01:29:59.946Z,89.70
2018-06-18T01:32:29.104Z,89.70
2018-06-18T01:34:58.237Z,89.90
2018-06-18T01:37:27.377Z,89.90
2018-06-18T01:39:56.496Z,90.00
2018-06-18T01:42:25.620Z,90.00
2018-06-18T01:44:55.692Z,90.10
2018-06-18T01:47:24.817Z,90.00
2018-06-18T01:49:53.973Z,90.00
2018-06-18T01:52:23.096Z,89.90
2018-06-18T01:54:52.209Z,89.90
2018-06-18T01:57:21.342Z,90.00
2018-06-18T01:59:50.454Z,90.00
2018-06-18T02:02:19.593Z,90.00
2018-06-18T02:04:48.717Z,90.00
2018-06-18T02:07:17.836Z,90.00
2018-06-18T02:09:46.965Z,90.10
2018-06-18T02:12:16.081Z,90.30
2018-06-18T02:14:45.454Z,90.10
2018-06-18T02:17:14.680Z,90.00
2018-06-18T02:19:43.781Z,90.20
2018-06-18T02:22:12.917Z,90.00
2018-06-18T02:24:42.064Z,90.10
2018-06-18T02:27:18.336Z,90.20
2018-06-18T02:29:53.025Z,90.20
2018-06-18T02:32:27.549Z,90.20
2018-06-18T02:35:01.934Z,90.20
2018-06-18T02:37:36.353Z,90.10
2018-06-18T02:40:10.917Z,90.00
2018-06-18T02:42:40.146Z,90.00
2018-06-18T02:45:09.280Z,90.00
2018-06-18T02:47:38.445Z,89.90
2018-06-18T02:50:07.611Z,89.80
2018-06-18T02:52:36.797Z,89.60
2018-06-18T02:55:06.811Z,89.80
2018-06-18T02:57:36.321Z,90.00
2018-06-18T03:00:05.652Z,90.00
2018-06-18T03:02:34.778Z,89.60
2018-06-18T03:05:03.925Z,89.30
2018-06-18T03:07:33.054Z,89.40
2018-06-18T03:10:02.173Z,89.10
2018-06-18T03:12:31.313Z,89.00
2018-06-18T03:15:00.457Z,89.00
2018-06-18T03:17:29.602Z,88.80
2018-06-18T03:20:03.934Z,88.20
2018-06-18T03:22:38.389Z,88.40
2018-06-18T03:25:12.805Z,88.30
2018-06-18T03:27:47.021Z,88.40
2018-06-18T03:30:16.149Z,88.40
2018-06-18T03:32:45.285Z,88.40
2018-06-18T03:35:14.427Z,88.40
2018-06-18T03:37:43.542Z,88.20
2018-06-18T03:40:12.901Z,88.30
2018-06-18T03:42:42.951Z,88.40
2018-06-18T03:45:26.256Z,87.30
2018-06-18T03:47:57.230Z,87.50
2018-06-18T03:52:55.250Z,88.20
2018-06-18T03:55:34.522Z,87.60
2018-06-18T03:58:08.962Z,87.20
2018-06-18T04:01:59.233Z,86.40
2018-06-18T04:04:45.992Z,86.20
2018-06-18T04:07:22.901Z,85.70
2018-06-18T04:09:57.338Z,85.20
2018-06-18T04:12:26.461Z,85.20
2018-06-18T04:14:55.600Z,85.20
2018-06-18T04:17:24.730Z,85.90
2018-06-18T04:19:53.908Z,84.90
2018-06-18T04:22:23.071Z,84.70
2018-06-18T04:24:52.213Z,84.30
2018-06-18T04:27:21.572Z,84.70
2018-06-18T04:29:50.705Z,84.50
2018-06-18T04:32:19.925Z,84.40
2018-06-18T04:34:57.052Z,84.80
2018-06-18T04:37:26.191Z,84.80
2018-06-18T04:39:55.332Z,84.90
2018-06-18T04:42:29.848Z,85.00
2018-06-18T04:45:04.228Z,85.10
2018-06-18T04:47:38.693Z,84.60
2018-06-18T04:50:13.094Z,84.00
2018-06-18T04:52:42.212Z,84.40
2018-06-18T04:55:11.362Z,84.40
2018-06-18T04:57:40.473Z,84.20
2018-06-18T05:01:05.813Z,82.80
2018-06-18T05:03:34.938Z,82.70
2018-06-18T05:06:04.227Z,82.70
2018-06-18T05:09:08.005Z,82.30
2018-06-18T05:11:37.161Z,82.60
2018-06-18T05:14:06.509Z,82.10
2018-06-18T05:16:35.938Z,81.50
2018-06-18T05:19:05.434Z,81.60
2018-06-18T05:21:34.846Z,81.60
2018-06-18T05:24:04.640Z,80.70
2018-06-18T05:26:36.093Z,80.40
2018-06-18T05:31:34.401Z,81.20
2018-06-18T05:34:03.517Z,80.50
2018-06-18T05:36:32.725Z,80.90
2018-06-18T05:39:01.846Z,81.30
2018-06-18T05:41:30.965Z,80.40
2018-06-18T05:44:00.087Z,80.60
2018-06-18T05:46:29.231Z,80.20
2018-06-18T05:48:58.378Z,79.60
2018-06-18T05:51:27.497Z,80.10
2018-06-18T05:53:56.620Z,79.60
2018-06-18T05:56:25.753Z,79.70
2018-06-18T05:58:54.889Z,80.30
2018-06-18T06:01:24.001Z,80.40
2018-06-18T06:03:53.128Z,79.90
2018-06-18T06:06:22.242Z,78.60
2018-06-18T06:08:51.373Z,77.00
2018-06-18T06:11:20.498Z,75.40
2018-06-18T06:13:49.646Z,76.70
2018-06-18T06:16:18.769Z,74.90
2018-06-18T06:18:47.893Z,75.10
2018-06-18T06:21:17.154Z,74.30
2018-06-18T06:23:46.505Z,75.10
2018-06-18T06:26:15.668Z,73.80
2018-06-18T06:28:44.793Z,73.50
2018-06-18T06:31:13.916Z,72.30
2018-06-18T06:33:43.327Z,73.30
2018-06-18T06:36:13.221Z,75.70
2018-06-18T06:38:42.636Z,74.40
2018-06-18T06:41:12.429Z,74.40
2018-06-18T06:43:41.545Z,73.90
2018-06-18T06:46:10.677Z,73.40
2018-06-18T06:48:40.043Z,73.20
2018-06-18T06:53:38.152Z,74.30
2018-06-18T06:56:07.299Z,75.50
2018-06-18T06:58:36.417Z,75.60
2018-06-18T07:01:05.551Z,75.90
2018-06-18T07:03:34.737Z,74.80
2018-06-18T07:06:03.849Z,73.10
2018-06-18T07:08:32.969Z,71.50
2018-06-18T07:11:02.097Z,72.30
2018-06-18T07:13:31.305Z,71.60
2018-06-18T07:16:00.392Z,71.80
2018-06-18T07:23:27.349Z,70.10
2018-06-18T07:25:56.507Z,70.80
2018-06-18T07:28:25.617Z,71.30
2018-06-18T07:30:54.765Z,70.50
2018-06-18T07:33:23.888Z,69.50
2018-06-18T07:35:53.000Z,69.60
2018-06-18T07:38:22.138Z,68.90
2018-06-18T07:40:51.301Z,69.30
2018-06-18T07:43:20.548Z,70.10
2018-06-18T07:45:49.670Z,71.40
2018-06-18T07:48:19.095Z,72.20
2018-06-18T07:50:48.281Z,70.40
2018-06-18T07:53:17.401Z,71.10
2018-06-18T07:55:46.716Z,69.20
2018-06-18T07:58:16.019Z,68.60
2018-06-18T08:00:45.192Z,67.60
2018-06-18T08:03:15.505Z,67.90
2018-06-18T08:05:45.353Z,67.70
2018-06-18T08:08:14.779Z,67.20
2018-06-18T08:10:44.359Z,66.80
2018-06-18T08:13:13.733Z,66.60
2018-06-18T08:15:43.256Z,66.10
2018-06-18T08:18:12.682Z,67.50
2018-06-18T08:20:42.672Z,66.90
2018-06-18T08:23:13.203Z,69.10
2018-06-18T08:25:42.478Z,67.50
2018-06-18T08:28:11.880Z,68.00
2018-06-18T08:30:42.484Z,67.80
2018-06-18T08:33:12.677Z,66.00
2018-06-18T08:35:41.826Z,65.70
2018-06-18T08:38:10.949Z,66.20
2018-06-18T08:40:40.089Z,66.30
2018-06-18T08:43:09.241Z,64.50
2018-06-18T08:45:38.400Z,64.80
2018-06-18T08:48:07.538Z,65.70
2018-06-18T08:50:41.897Z,64.20
2018-06-18T08:53:16.293Z,62.60
2018-06-18T08:56:50.531Z,63.10
2018-06-18T08:59:24.914Z,62.50
2018-06-18T09:01:54.045Z,64.30
2018-06-18T09:04:28.557Z,64.60
2018-06-18T09:07:03.485Z,65.90
2018-06-18T09:09:32.616Z,65.10
2018-06-18T09:12:01.741Z,64.10
2018-06-18T09:14:30.930Z,65.60
2018-06-18T09:17:00.054Z,66.50
2018-06-18T09:19:29.223Z,65.70
2018-06-18T09:21:58.337Z,66.10
2018-06-18T09:24:34.130Z,64.80
2018-06-18T09:27:08.517Z,62.90
2018-06-18T09:29:37.849Z,64.50
2018-06-18T09:32:11.197Z,64.80
2018-06-18T09:34:40.286Z,63.10
2018-06-18T09:37:09.401Z,65.20
2018-06-18T09:39:38.529Z,65.00
2018-06-18T09:42:07.679Z,64.60
2018-06-18T09:44:36.809Z,65.00
2018-06-18T09:47:05.949Z,63.10
2018-06-18T09:49:40.512Z,62.10
2018-06-18T09:53:18.634Z,62.00
2018-06-18T09:55:53.183Z,63.00
2018-06-18T09:58:27.661Z,62.50
2018-06-18T10:01:12.625Z,64.10
2018-06-18T10:03:41.800Z,64.30
2018-06-18T10:06:10.921Z,62.80
2018-06-18T10:08:40.084Z,62.90
2018-06-18T10:11:09.182Z,62.80
2018-06-18T10:13:38.317Z,66.00
2018-06-18T10:16:08.164Z,65.20
2018-06-18T10:18:37.298Z,64.20
2018-06-18T10:21:06.749Z,63.40
2018-06-18T10:23:35.873Z,60.90
2018-06-18T10:26:05.004Z,61.30
2018-06-18T10:28:34.138Z,60.70
2018-06-18T10:31:03.480Z,61.00
2018-06-18T10:33:37.714Z,59.30
2018-06-18T10:36:12.157Z,61.60
2018-06-18T10:38:46.660Z,59.30
2018-06-18T10:41:21.091Z,60.80
2018-06-18T10:43:50.226Z,60.30
2018-06-18T10:46:19.361Z,58.80
2018-06-18T10:48:48.509Z,58.70
2018-06-18T10:51:17.638Z,59.30
2018-06-18T10:53:46.763Z,58.10
2018-06-18T10:56:15.909Z,58.70
2018-06-18T10:58:45.046Z,60.30
2018-06-18T11:01:22.085Z,60.00
2018-06-18T11:03:52.153Z,59.20
2018-06-18T11:06:26.492Z,60.40
2018-06-18T11:08:55.643Z,58.50
2018-06-18T11:13:53.727Z,57.70
2018-06-18T11:16:23.097Z,58.50
2018-06-18T11:18:57.290Z,59.30
2018-06-18T11:21:31.662Z,57.80
2018-06-18T11:26:40.448Z,58.40
2018-06-18T11:29:09.913Z,58.90
2018-06-18T11:31:39.126Z,57.80
2018-06-18T11:34:08.247Z,58.80
2018-06-18T11:36:37.417Z,58.40
2018-06-18T11:39:09.165Z,59.70
2018-06-18T11:41:38.303Z,60.90
2018-06-18T11:44:07.420Z,58.20
2018-06-18T11:46:36.575Z,58.50
2018-06-18T11:49:05.726Z,57.00
2018-06-18T11:51:34.834Z,55.50
2018-06-18T11:54:03.984Z,58.40
2018-06-18T11:56:33.402Z,58.80
2018-06-18T11:59:07.957Z,56.20
2018-06-18T12:01:42.449Z,57.70
2018-06-18T12:04:16.859Z,56.90
2018-06-18T12:06:51.252Z,56.90
2018-06-18T12:09:29.247Z,57.10
2018-06-18T12:11:58.370Z,57.20
2018-06-18T12:14:27.829Z,58.00
2018-06-18T12:16:57.032Z,59.00
2018-06-18T12:19:26.213Z,59.00
2018-06-18T12:21:55.344Z,56.60
2018-06-18T12:24:24.533Z,56.20
2018-06-18T12:26:53.672Z,58.50
2018-06-18T12:29:22.777Z,57.30
2018-06-18T12:31:51.911Z,55.40
2018-06-18T12:34:21.037Z,55.90
2018-06-18T12:36:50.172Z,57.00
2018-06-18T12:39:19.340Z,57.30
2018-06-18T12:41:55.541Z,56.00
2018-06-18T12:44:24.678Z,56.90
2018-06-18T12:46:59.328Z,56.90
2018-06-18T12:49:33.478Z,55.30
2018-06-18T12:54:42.234Z,55.90
2018-06-18T12:57:11.365Z,56.00
2018-06-18T12:59:40.486Z,56.60
2018-06-18T13:02:21.982Z,56.20
2018-06-18T13:04:57.345Z,57.50
2018-06-18T13:07:27.028Z,55.40
2018-06-18T13:09:57.160Z,55.40
2018-06-18T13:12:26.715Z,55.60
2018-06-18T13:14:55.831Z,54.50
2018-06-18T13:17:25.003Z,56.50
2018-06-18T13:19:54.108Z,55.20
2018-06-18T13:22:23.257Z,54.10
2018-06-18T13:24:52.368Z,56.20
2018-06-18T13:27:25.632Z,55.60
2018-06-18T13:29:54.869Z,56.10
2018-06-18T13:32:24.025Z,55.80
2018-06-18T13:34:53.155Z,54.70
2018-06-18T13:37:27.597Z,54.80
2018-06-18T13:40:02.049Z,55.90
2018-06-18T13:42:36.470Z,55.40
2018-06-18T13:45:10.886Z,55.30
2018-06-18T13:47:45.290Z,55.80
2018-06-18T13:50:14.653Z,54.90
2018-06-18T13:52:43.887Z,55.40
2018-06-18T13:55:12.923Z,55.50
2018-06-18T13:57:42.061Z,56.30
2018-06-18T14:00:11.257Z,56.10
2018-06-18T14:02:40.412Z,56.00
2018-06-18T14:05:09.525Z,55.40
2018-06-18T14:07:38.666Z,57.00
2018-06-18T14:10:08.026Z,57.00
2018-06-18T14:15:06.189Z,56.80
2018-06-18T14:17:35.338Z,56.40
2018-06-18T14:20:10.147Z,55.40
2018-06-18T14:22:39.274Z,56.20
2018-06-18T14:25:08.421Z,56.30
2018-06-18T14:27:37.541Z,55.90
2018-06-18T14:30:12.021Z,56.40
2018-06-18T14:32:46.513Z,56.90
2018-06-18T14:35:20.814Z,56.70
2018-06-18T14:38:58.233Z,57.30
2018-06-18T14:41:27.594Z,56.00
2018-06-18T14:43:56.722Z,56.00
2018-06-18T14:46:25.837Z,55.50
2018-06-18T14:48:54.973Z,55.50
2018-06-18T14:51:24.135Z,54.60
2018-06-18T14:53:53.478Z,52.30
2018-06-18T14:56:27.445Z,52.50
2018-06-18T14:59:11.637Z,53.00
2018-06-18T15:01:41.013Z,53.80
2018-06-18T15:04:10.130Z,53.90
2018-06-18T15:09:11.014Z,55.60
2018-06-18T15:11:40.781Z,55.10
2018-06-18T15:14:10.138Z,54.80
2018-06-18T15:16:39.277Z,55.10
2018-06-18T15:19:08.427Z,56.10
2018-06-18T15:21:44.341Z,57.50
2018-06-18T15:24:19.661Z,57.00
2018-06-18T15:26:48.866Z,55.90
2018-06-18T15:29:17.948Z,55.60
2018-06-18T15:31:47.090Z,55.80
2018-06-18T15:34:16.216Z,56.00
2018-06-18T15:36:45.328Z,55.10
2018-06-18T15:39:14.469Z,55.80
2018-06-18T15:41:43.593Z,55.90
2018-06-18T15:44:12.757Z,56.20
2018-06-18T15:46:41.848Z,54.00
2018-06-18T15:49:11.141Z,55.30
2018-06-18T15:51:40.289Z,55.00
2018-06-18T15:54:09.408Z,55.10
2018-06-18T15:56:38.600Z,56.20
2018-06-18T16:01:36.728Z,55.00
2018-06-18T16:04:06.117Z,55.80
2018-06-18T16:06:35.241Z,55.40
2018-06-18T16:09:06.117Z,55.20
2018-06-18T16:11:35.473Z,54.50
2018-06-18T16:14:04.637Z,53.60
2018-06-18T16:16:33.748Z,53.90
2018-06-18T16:19:02.902Z,53.80
2018-06-18T16:21:32.034Z,55.10
2018-06-18T16:24:01.453Z,55.10
2018-06-18T16:26:30.872Z,55.60
2018-06-18T16:29:00.014Z,54.70
2018-06-18T16:31:29.144Z,54.60
2018-06-18T16:33:58.320Z,55.00
2018-06-18T16:36:27.525Z,55.50
2018-06-18T16:38:56.738Z,54.50
2018-06-18T16:41:26.222Z,53.60
2018-06-18T16:43:55.501Z,54.00
2018-06-18T16:46:24.681Z,54.60
2018-06-18T16:48:53.977Z,55.50
2018-06-18T16:51:23.110Z,55.60
2018-06-18T16:53:52.454Z,54.50
2018-06-18T16:56:21.637Z,55.00
2018-06-18T16:58:50.869Z,55.50
2018-06-18T17:01:20.005Z,55.60
2018-06-18T17:03:49.130Z,53.00
2018-06-18T17:06:18.353Z,53.50
2018-06-18T17:08:47.490Z,53.60
2018-06-18T17:11:16.629Z,53.70
2018-06-18T17:13:45.993Z,53.70
2018-06-18T17:16:15.171Z,54.00
2018-06-18T17:18:44.297Z,53.80
2018-06-18T17:21:13.444Z,54.00
2018-06-18T17:23:42.622Z,54.40
2018-06-18T17:26:11.770Z,54.80
2018-06-18T17:28:41.120Z,55.10
2018-06-18T17:31:10.241Z,55.70
2018-06-18T17:33:39.898Z,54.80
2018-06-18T17:36:09.223Z,55.30
2018-06-18T17:38:38.631Z,56.20
2018-06-18T17:41:07.753Z,55.50
2018-06-18T17:43:36.872Z,56.40
2018-06-18T17:46:06.005Z,55.70
2018-06-18T17:48:35.133Z,56.20
2018-06-18T17:51:04.278Z,56.80
2018-06-18T17:53:33.421Z,56.50
2018-06-18T17:56:02.549Z,56.60
2018-06-18T17:58:31.785Z,56.10
2018-06-18T18:01:00.923Z,56.50
2018-06-18T18:03:30.065Z,56.80
2018-06-18T18:05:59.233Z,56.60
2018-06-18T18:08:28.356Z,56.40
2018-06-18T18:10:57.501Z,56.60
2018-06-18T18:13:26.665Z,56.80
2018-06-18T18:15:56.869Z,57.10
2018-06-18T18:18:26.009Z,57.10
2018-06-18T18:20:55.185Z,57.40
2018-06-18T18:23:24.573Z,57.70
2018-06-18T18:25:53.905Z,58.80
2018-06-18T18:28:23.144Z,58.50
2018-06-18T18:30:52.492Z,58.30
2018-06-18T18:33:21.702Z,58.10
2018-06-18T18:35:50.959Z,58.60
2018-06-18T18:38:20.395Z,59.20
2018-06-18T18:40:49.664Z,57.80
2018-06-18T18:43:19.009Z,57.70
2018-06-18T18:45:48.230Z,58.30
2018-06-18T18:48:17.399Z,58.80
2018-06-18T18:50:46.559Z,59.40
2018-06-18T18:53:15.877Z,59.80
2018-06-18T18:56:03.637Z,61.10
2018-06-18T18:59:40.608Z,60.80
2018-06-18T19:04:55.605Z,61.30
2018-06-18T19:07:45.188Z,62.10
2018-06-18T19:10:28.798Z,62.10
2018-06-18T19:13:01.464Z,62.40
2018-06-18T19:15:30.669Z,62.30
2018-06-18T19:17:59.886Z,61.90
2018-06-18T19:20:36.704Z,62.60
2018-06-18T19:23:06.293Z,62.40
2018-06-18T19:25:35.860Z,61.90
2018-06-18T19:28:05.309Z,62.40
2018-06-18T19:30:35.944Z,62.30
2018-06-18T19:33:24.457Z,62.90
2018-06-18T19:35:54.365Z,63.50
2018-06-18T19:38:23.601Z,63.60
2018-06-18T19:40:52.729Z,63.40
2018-06-18T19:43:22.017Z,63.30
2018-06-18T19:45:55.655Z,63.70
2018-06-18T19:48:30.909Z,63.70
2018-06-18T19:51:00.058Z,64.90
2018-06-18T19:53:29.190Z,64.40
2018-06-18T19:55:58.381Z,65.30
2018-06-18T19:58:27.517Z,64.90
2018-06-18T20:01:01.005Z,65.80
2018-06-18T20:03:30.158Z,65.10
2018-06-18T20:05:59.416Z,65.30
2018-06-18T20:08:30.628Z,65.30
2018-06-18T20:10:59.769Z,65.70
2018-06-18T20:13:28.908Z,66.40
2018-06-18T20:15:58.229Z,66.30
2018-06-18T20:18:27.404Z,66.80
2018-06-18T20:20:56.538Z,66.70
2018-06-18T20:23:27.561Z,66.60
2018-06-18T20:26:03.818Z,67.00
2018-06-18T20:28:33.229Z,67.10
2018-06-18T20:31:02.416Z,67.40
2018-06-18T20:33:33.865Z,67.40
2018-06-18T20:36:10.214Z,67.70
2018-06-18T20:38:39.354Z,67.80
2018-06-18T20:41:09.445Z,68.10
2018-06-18T20:43:51.481Z,68.50
2018-06-18T20:46:20.592Z,68.60
2018-06-18T20:48:49.861Z,68.40
2018-06-18T20:51:19.049Z,68.50
2018-06-18T20:53:48.182Z,68.30
2018-06-18T20:56:17.357Z,70.10
2018-06-18T20:58:46.591Z,69.80
2018-06-18T21:01:15.737Z,70.80
2018-06-18T21:03:44.893Z,70.10
2018-06-18T21:06:14.160Z,70.40
2018-06-18T21:08:43.302Z,70.60
2018-06-18T21:11:12.724Z,70.90
2018-06-18T21:13:41.929Z,71.50
2018-06-18T21:16:11.120Z,71.80
2018-06-18T21:18:40.317Z,71.10
2018-06-18T21:21:09.501Z,70.00
2018-06-18T21:23:38.679Z,70.80
2018-06-18T21:26:08.025Z,71.10
2018-06-18T21:28:37.178Z,71.20
2018-06-18T21:31:06.588Z,70.60
2018-06-18T21:33:35.880Z,71.40
2018-06-18T21:36:05.105Z,71.40
2018-06-18T21:38:34.246Z,71.20
2018-06-18T21:41:03.372Z,72.00
2018-06-18T21:43:32.489Z,72.40
2018-06-18T21:46:01.674Z,72.40
2018-06-18T21:48:30.789Z,72.30
2018-06-18T21:50:59.909Z,72.80
2018-06-18T21:53:29.034Z,72.70
2018-06-18T21:55:58.153Z,73.40
2018-06-18T21:58:27.284Z,73.60
2018-06-18T22:00:56.409Z,72.90
2018-06-18T22:03:25.531Z,72.40
2018-06-18T22:05:54.669Z,72.00
2018-06-18T22:08:25.966Z,72.00
2018-06-18T22:10:55.182Z,72.70
2018-06-18T22:13:24.218Z,73.50
2018-06-18T22:15:53.337Z,74.40
2018-06-18T22:18:22.473Z,73.70
2018-06-18T22:20:51.593Z,74.10
2018-06-18T22:23:20.881Z,74.10
2018-06-18T22:25:50.026Z,74.20
2018-06-18T22:28:29.717Z,74.30
2018-06-18T22:30:58.857Z,74.70
2018-06-18T22:33:27.965Z,74.80
2018-06-18T22:35:57.108Z,75.10
2018-06-18T22:38:26.245Z,74.70
2018-06-18T22:40:55.390Z,75.60
2018-06-18T22:43:24.600Z,74.30
2018-06-18T22:45:53.732Z,74.60
2018-06-18T22:48:22.861Z,75.60
2018-06-18T22:50:52.081Z,74.80
2018-06-18T22:53:21.209Z,74.80
2018-06-18T22:55:50.345Z,75.10
2018-06-18T22:58:19.575Z,74.40
2018-06-18T23:00:52.365Z,75.00
2018-06-18T23:03:21.517Z,74.80
2018-06-18T23:05:50.643Z,74.80
2018-06-18T23:08:20.152Z,74.80
2018-06-18T23:10:49.992Z,75.00
2018-06-18T23:13:23.885Z,74.90
2018-06-18T23:15:53.005Z,74.80
2018-06-18T23:18:22.128Z,75.60
2018-06-18T23:20:51.494Z,75.10
2018-06-18T23:23:20.641Z,75.20
2018-06-18T23:25:49.773Z,75.60
2018-06-18T23:28:20.002Z,75.90
2018-06-18T23:30:49.124Z,76.50
2018-06-18T23:33:18.287Z,76.40
2018-06-18T23:35:47.428Z,76.70
2018-06-18T23:38:16.561Z,76.00
2018-06-18T23:40:45.680Z,75.80
2018-06-18T23:43:14.917Z,76.40
2018-06-18T23:45:44.033Z,77.00
2018-06-18T23:48:13.157Z,76.70
2018-06-18T23:50:42.278Z,76.30
2018-06-18T23:53:11.413Z,76.70
2018-06-18T23:55:40.530Z,77.30
2018-06-18T23:58:09.670Z,77.30
